Time;durP1;ratioP1;P1;durP2;ratioP2;P2;SDS_P1;SDS_P2;PMS_P1;PMS_P2;Temp;Humidity;BMP_temperature;BMP_pressure;BME280_temperature;BME280_humidity;BME280_pressure;Samples;Min_cycle;Max_cycle;Signal;HPM_P1;HPM_P2
2022/08/06 00:02:20;;;;;;;;;;;;;;;20.83;54.75;99704.75;5155486;27;19938;-79
2022/08/06 00:04:54;;;;;;;;;;;;;;;20.80;55.03;99707.28;5155331;27;19927;-79
2022/08/06 00:07:21;;;;;;;;;;;;;;;20.75;55.11;99708.97;5136597;27;20461;-79
2022/08/06 00:09:52;;;;;;;;;;;;;;;20.73;55.57;99710.38;5155480;27;19987;-80
2022/08/06 00:12:26;;;;;;;;;;;;;;;20.70;55.59;99711.78;5155440;27;19927;-80
2022/08/06 00:14:55;;;;;;;;;;;;;;;20.65;55.75;99714.59;5155394;27;19927;-80
2022/08/06 00:17:24;;;;;;;;;;;;;;;20.64;55.63;99707.47;5155016;27;20411;-79
2022/08/06 00:19:57;;;;;;;;;;;;;;;20.60;56.01;99714.66;5155244;27;19927;-80
2022/08/06 00:22:27;;;;;;;;;;;;;;;20.56;56.10;99711.69;5155200;27;19950;-80
2022/08/06 00:24:55;;;;;;;;;;;;;;;20.53;56.24;99711.41;5155270;27;20025;-78
2022/08/06 00:27:24;;;;;;;;;;;;;;;20.50;56.24;99712.00;5155077;27;19938;-78
2022/08/06 00:30:05;;;;;;;;;;;;;;;20.46;56.61;99717.25;5155153;27;20343;-79
2022/08/06 00:32:40;;;;;;;;;;;;;;;20.46;56.72;99721.91;5154801;27;20442;-79
2022/08/06 00:35:09;;;;;;;;;;;;;;;20.43;56.73;99717.00;5136455;27;20424;-80
2022/08/06 00:37:36;;;;;;;;;;;;;;;20.41;56.98;99716.50;5154560;27;19934;-79
2022/08/06 00:40:23;;;;;;;;;;;;;;;20.36;56.95;99717.38;5115705;27;19955;-79
2022/08/06 00:42:50;;;;;;;;;;;;;;;20.35;57.44;99715.75;5115771;27;19959;-79
2022/08/06 00:45:20;;;;;;;;;;;;;;;20.32;57.39;99717.13;5133973;27;19972;-80
2022/08/06 00:47:51;;;;;;;;;;;;;;;20.37;57.57;99718.19;5116248;27;19928;-79
2022/08/06 00:50:31;;;;;;;;;;;;;;;20.32;57.53;99722.63;5133086;27;20370;-79
2022/08/06 00:52:59;;;;;;;;;;;;;;;20.28;57.79;99718.00;5133756;27;19935;-79
2022/08/06 00:55:26;;;;;;;;;;;;;;;20.30;58.20;99713.88;5133602;27;20409;-78
2022/08/06 00:58:02;;;;;;;;;;;;;;;20.27;58.29;99714.47;5115368;27;20434;-80
2022/08/06 01:00:31;;;;;;;;;;;;;;;20.27;58.33;99708.97;5115281;27;19927;-79
2022/08/06 01:03:04;;;;;;;;;;;;;;;20.29;58.77;99714.19;5133916;27;19928;-79
2022/08/06 01:05:31;;;;;;;;;;;;;;;20.31;58.78;99715.53;5133467;27;19927;-79
2022/08/06 01:08:18;;;;;;;;;;;;;;;20.34;58.69;99714.13;5118517;27;20398;-80
2022/08/06 01:10:45;;;;;;;;;;;;;;;20.35;58.85;99724.78;5133259;27;19969;-79
2022/08/06 01:13:15;;;;;;;;;;;;;;;20.35;58.84;99719.28;5133281;27;19934;-79
2022/08/06 01:16:03;;;;;;;;;;;;;;;20.33;59.66;99724.28;5133585;27;20370;-79
2022/08/06 01:19:07;;;;;;;;;;;;;;;20.37;59.74;99729.16;5132979;27;19927;-79
2022/08/06 01:21:46;;;;;;;;;;;;;;;20.44;59.22;99724.16;5091259;27;19927;-79
2022/08/06 01:24:39;;;;;;;;;;;;;;;20.49;59.58;99729.56;5132841;27;19927;-80
2022/08/06 01:27:36;;;;;;;;;;;;;;;20.52;59.43;99723.50;5115886;27;19931;-79
2022/08/06 01:30:10;;;;;;;;;;;;;;;20.55;59.43;99723.75;5097899;27;19935;-80
2022/08/06 01:32:45;;;;;;;;;;;;;;;20.55;59.80;99725.69;5114573;27;19938;-80
2022/08/06 01:35:21;;;;;;;;;;;;;;;20.51;59.75;99735.59;5115129;27;19934;-79
2022/08/06 01:38:18;;;;;;;;;;;;;;;20.47;60.55;99724.38;5100643;27;20456;-79
2022/08/06 01:40:48;;;;;;;;;;;;;;;20.48;60.36;99728.72;5133065;27;19928;-80
2022/08/06 01:43:17;;;;;;;;;;;;;;;20.49;60.36;99740.53;5098480;27;19931;-79
2022/08/06 01:46:05;;;;;;;;;;;;;;;20.47;60.23;99731.78;5132998;27;20427;-79
2022/08/06 01:48:33;;;;;;;;;;;;;;;20.48;60.37;99730.66;5113876;27;19927;-79
2022/08/06 01:51:01;;;;;;;;;;;;;;;20.50;60.49;99728.44;5114148;27;20438;-80
2022/08/06 01:53:29;;;;;;;;;;;;;;;20.49;61.10;99724.91;5114439;27;19927;-79
2022/08/06 01:56:16;;;;;;;;;;;;;;;20.52;60.81;99737.22;5117379;27;19927;-78
2022/08/06 01:58:56;;;;;;;;;;;;;;;20.50;61.17;99729.25;5132623;27;19927;-80
2022/08/06 02:01:23;;;;;;;;;;;;;;;20.49;60.87;99727.66;5132310;27;19927;-79
2022/08/06 02:03:51;;;;;;;;;;;;;;;20.49;60.85;99729.56;5114479;27;20018;-79
2022/08/06 02:06:43;;;;;;;;;;;;;;;20.46;61.05;99728.22;5132465;27;19927;-79
2022/08/06 02:09:16;;;;;;;;;;;;;;;20.44;61.19;99729.63;5114002;27;19928;-78
2022/08/06 02:11:55;;;;;;;;;;;;;;;20.41;61.35;99730.19;5116038;28;19935;-80
2022/08/06 02:14:30;;;;;;;;;;;;;;;20.34;61.47;99736.03;5115351;28;19984;-79
2022/08/06 02:16:57;;;;;;;;;;;;;;;20.27;61.98;99735.56;5114342;28;19977;-78
2022/08/06 02:19:40;;;;;;;;;;;;;;;20.24;62.51;99741.63;5132429;28;20022;-80
2022/08/06 02:22:25;;;;;;;;;;;;;;;20.21;62.54;99740.28;5113917;28;19927;-79
2022/08/06 02:24:53;;;;;;;;;;;;;;;20.20;62.26;99744.13;5114469;28;20430;-79
2022/08/06 02:27:19;;;;;;;;;;;;;;;20.20;62.23;99741.38;5132323;28;19931;-78
2022/08/06 02:29:49;;;;;;;;;;;;;;;20.24;62.26;99742.44;5114822;28;19976;-79
2022/08/06 02:32:32;;;;;;;;;;;;;;;20.25;62.36;99744.06;5116388;28;19927;-80
2022/08/06 02:35:08;;;;;;;;;;;;;;;20.27;62.19;99746.53;5117683;27;20315;-79
2022/08/06 02:37:41;;;;;;;;;;;;;;;20.26;62.38;99751.22;5134867;27;19934;-79
2022/08/06 02:40:33;;;;;;;;;;;;;;;20.30;62.35;99744.00;5137937;27;19927;-79
2022/08/06 02:43:10;;;;;;;;;;;;;;;20.31;62.38;99745.66;5152830;27;19934;-80
2022/08/06 02:45:52;;;;;;;;;;;;;;;20.32;62.73;99754.69;5134920;27;20022;-79
2022/08/06 02:48:30;;;;;;;;;;;;;;;20.37;62.79;99745.63;5135409;27;19952;-79
2022/08/06 02:51:01;;;;;;;;;;;;;;;20.38;62.68;99748.03;5134982;27;19931;-79
2022/08/06 02:54:00;;;;;;;;;;;;;;;20.36;63.00;99744.81;5152516;27;20389;-79
2022/08/06 02:56:31;;;;;;;;;;;;;;;20.36;62.89;99744.81;5134670;27;20135;-79
2022/08/06 02:58:58;;;;;;;;;;;;;;;20.32;63.09;99739.06;5136216;27;19934;-79
2022/08/06 03:01:28;;;;;;;;;;;;;;;20.35;63.20;99749.44;5138612;27;19933;-79
2022/08/06 03:04:05;;;;;;;;;;;;;;;20.35;63.38;99740.41;5140099;27;20008;-79
2022/08/06 03:06:35;;;;;;;;;;;;;;;20.43;63.45;99744.44;5138544;27;19927;-80
2022/08/06 03:09:04;;;;;;;;;;;;;;;20.55;63.09;99739.38;5156681;27;19927;-77
2022/08/06 03:11:32;;;;;;;;;;;;;;;20.64;63.10;99742.31;5128587;27;19928;-78
2022/08/06 03:14:00;;;;;;;;;;;;;;;20.69;63.14;99737.56;5146672;27;19937;-79
2022/08/06 03:16:29;;;;;;;;;;;;;;;20.77;62.85;99747.88;5133024;27;19927;-78
2022/08/06 03:18:57;;;;;;;;;;;;;;;20.89;62.61;99743.88;5156388;27;20346;-79
2022/08/06 03:21:44;;;;;;;;;;;;;;;21.01;62.49;99747.00;5141530;27;20297;-79
2022/08/06 03:24:22;;;;;;;;;;;;;;;21.13;62.71;99747.41;5124712;27;19963;-81
2022/08/06 03:26:53;;;;;;;;;;;;;;;21.24;62.47;99744.50;5134961;27;19934;-80
2022/08/06 03:29:22;;;;;;;;;;;;;;;21.32;62.13;99738.34;5117359;27;19927;-81
2022/08/06 03:31:48;;;;;;;;;;;;;;;21.42;62.16;99741.78;5137257;27;20018;-80
2022/08/06 03:34:25;;;;;;;;;;;;;;;21.50;61.74;99739.47;5144049;27;19927;-80
2022/08/06 03:36:54;;;;;;;;;;;;;;;21.59;61.37;99735.72;5117952;27;19927;-80
2022/08/06 03:39:20;;;;;;;;;;;;;;;21.69;61.44;99743.00;5155720;27;19937;-80
2022/08/06 03:41:48;;;;;;;;;;;;;;;21.76;61.44;99734.38;5121027;27;20026;-79
2022/08/06 03:44:35;;;;;;;;;;;;;;;21.87;61.24;99738.56;5134122;27;19935;-79
2022/08/06 03:47:24;;;;;;;;;;;;;;;21.95;61.14;99740.63;5127752;27;19975;-79
2022/08/06 03:50:23;;;;;;;;;;;;;;;22.07;61.24;99748.38;5120584;27;19928;-80
2022/08/06 03:52:53;;;;;;;;;;;;;;;22.17;60.98;99744.63;5124904;27;19939;-80
2022/08/06 03:55:23;;;;;;;;;;;;;;;22.27;60.72;99749.97;5124393;27;20439;-78
2022/08/06 03:57:55;;;;;;;;;;;;;;;22.35;60.71;99752.00;5111340;27;19927;-80
2022/08/06 04:00:23;;;;;;;;;;;;;;;22.45;60.60;99749.03;5121969;27;19928;-80
2022/08/06 04:02:54;;;;;;;;;;;;;;;22.50;60.67;99750.88;5117862;27;19927;-80
2022/08/06 04:05:24;;;;;;;;;;;;;;;22.59;60.21;99748.25;5120735;27;19931;-79
2022/08/06 04:07:55;;;;;;;;;;;;;;;22.68;60.27;99754.66;5121132;27;20026;-80
2022/08/06 04:10:27;;;;;;;;;;;;;;;22.79;59.94;99752.50;5123461;27;20034;-79
2022/08/06 04:13:07;;;;;;;;;;;;;;;22.85;59.88;99752.09;5122431;27;19974;-83
2022/08/06 04:15:54;;;;;;;;;;;;;;;22.88;59.88;99756.97;5122779;27;19927;-81
2022/08/06 04:18:30;;;;;;;;;;;;;;;22.95;60.18;99762.06;5129067;27;20294;-80
2022/08/06 04:21:00;;;;;;;;;;;;;;;23.02;59.98;99762.50;5129551;27;19927;-79
2022/08/06 04:23:47;;;;;;;;;;;;;;;23.09;59.84;99767.56;5129846;27;19934;-80
2022/08/06 04:26:17;;;;;;;;;;;;;;;23.18;59.40;99767.66;4773091;27;10000919;-79
2022/08/06 04:29:01;;;;;;;;;;;;;;;23.23;59.45;99765.59;5116528;27;20464;-79
2022/08/06 04:31:28;;;;;;;;;;;;;;;23.21;59.27;99765.09;5116830;27;19928;-79
2022/08/06 04:34:17;;;;;;;;;;;;;;;23.26;59.33;99761.41;5116693;27;19928;-79
2022/08/06 04:36:44;;;;;;;;;;;;;;;23.27;59.48;99752.84;5118436;27;20390;-80
2022/08/06 04:39:19;;;;;;;;;;;;;;;23.30;59.10;99757.72;5116366;27;19927;-80
2022/08/06 04:42:03;;;;;;;;;;;;;;;23.36;59.33;99756.47;5118927;27;19927;-80
2022/08/06 04:44:34;;;;;;;;;;;;;;;23.44;58.95;99756.84;5124677;27;19935;-80
2022/08/06 04:47:10;;;;;;;;;;;;;;;23.51;59.07;99760.00;5108004;28;19939;-80
2022/08/06 04:49:40;;;;;;;;;;;;;;;23.58;59.07;99754.88;5109108;28;19948;-79
2022/08/06 04:52:30;;;;;;;;;;;;;;;23.65;58.67;99757.16;5108615;28;20622;-79
2022/08/06 04:55:17;;;;;;;;;;;;;;;23.66;59.02;99758.81;5107992;28;19957;-80
2022/08/06 04:58:00;;;;;;;;;;;;;;;23.75;58.46;99763.28;5109573;28;19928;-79
2022/08/06 05:00:35;;;;;;;;;;;;;;;23.86;58.27;99760.28;5109106;28;20425;-80
2022/08/06 05:03:22;;;;;;;;;;;;;;;23.93;58.05;99763.41;5109023;28;19981;-80
2022/08/06 05:06:10;;;;;;;;;;;;;;;24.01;57.69;99754.38;5109043;28;20030;-80
2022/08/06 05:08:40;;;;;;;;;;;;;;;24.11;57.40;99758.81;5107889;28;20352;-80
2022/08/06 05:11:11;;;;;;;;;;;;;;;24.12;57.26;99754.91;5107555;28;19928;-80
2022/08/06 05:13:39;;;;;;;;;;;;;;;23.99;57.41;99765.69;5107527;28;19997;-80
2022/08/06 05:16:12;;;;;;;;;;;;;;;24.06;57.69;99756.19;5108169;28;19967;-81
2022/08/06 05:18:53;;;;;;;;;;;;;;;24.21;57.04;99753.00;5090792;28;20377;-80
2022/08/06 05:21:40;;;;;;;;;;;;;;;24.12;57.07;99757.66;5107077;28;20038;-80
2022/08/06 05:24:27;;;;;;;;;;;;;;;24.10;57.03;99763.47;5097294;28;19934;-80
2022/08/06 05:27:14;;;;;;;;;;;;;;;24.21;56.81;99748.31;5112639;28;19928;-81
2022/08/06 05:29:41;;;;;;;;;;;;;;;24.38;56.85;99749.50;5110929;28;20000;-80
2022/08/06 05:32:20;;;;;;;;;;;;;;;24.58;56.86;99757.22;5112226;28;19978;-80
2022/08/06 05:34:51;;;;;;;;;;;;;;;24.79;56.30;99751.94;5112161;28;20302;-80
2022/08/06 05:37:20;;;;;;;;;;;;;;;24.86;55.94;99751.47;5111730;28;19928;-82
2022/08/06 05:40:08;;;;;;;;;;;;;;;24.94;55.38;99747.09;5112006;28;19935;-81
2022/08/06 05:42:38;;;;;;;;;;;;;;;25.06;55.25;99742.56;5128065;27;20282;-80
2022/08/06 05:45:07;;;;;;;;;;;;;;;25.22;55.41;99744.88;5114229;27;19927;-81
2022/08/06 05:47:37;;;;;;;;;;;;;;;25.29;54.83;99748.81;5097275;27;19928;-81
2022/08/06 05:50:23;;;;;;;;;;;;;;;25.33;54.59;99745.38;5117148;27;20474;-82
2022/08/06 05:52:59;;;;;;;;;;;;;;;25.33;54.70;99748.94;5097782;27;19927;-82
2022/08/06 05:55:39;;;;;;;;;;;;;;;25.31;54.62;99742.94;5114473;27;20026;-82
2022/08/06 05:58:07;;;;;;;;;;;;;;;25.38;54.49;99748.78;5114276;27;20405;-82
2022/08/06 06:00:36;;;;;;;;;;;;;;;25.50;54.22;99748.94;5116752;27;19971;-82
2022/08/06 06:03:13;;;;;;;;;;;;;;;25.57;53.97;99742.09;5099418;28;19927;-81
2022/08/06 06:05:58;;;;;;;;;;;;;;;25.69;53.67;99745.03;5115479;27;19931;-83
2022/08/06 06:08:43;;;;;;;;;;;;;;;25.82;53.49;99737.69;5121146;27;19933;-81
2022/08/06 06:11:25;;;;;;;;;;;;;;;25.94;53.57;99746.94;5101354;28;20434;-82
2022/08/06 06:14:25;;;;;;;;;;;;;;;26.06;53.06;99751.00;5128889;27;19927;-81
2022/08/06 06:17:10;;;;;;;;;;;;;;;26.21;52.62;99744.13;5132018;27;19934;-80
2022/08/06 06:20:03;;;;;;;;;;;;;;;26.32;52.15;99737.88;5110383;27;20341;-82
2022/08/06 06:22:56;;;;;;;;;;;;;;;26.34;52.08;99743.09;5139717;27;20025;-81
2022/08/06 06:25:27;;;;;;;;;;;;;;;26.41;52.10;99748.09;5106138;27;20313;-81
2022/08/06 06:28:05;;;;;;;;;;;;;;;26.40;51.78;99740.94;5139241;27;19938;-82
2022/08/06 06:30:35;;;;;;;;;;;;;;;26.34;52.37;99737.56;5135651;27;19934;-82
2022/08/06 06:33:18;;;;;;;;;;;;;;;26.59;51.99;99738.59;5136902;27;19927;-83
2022/08/06 06:36:06;;;;;;;;;;;;;;;26.77;51.74;99736.53;5136374;27;19927;-82
2022/08/06 06:38:54;;;;;;;;;;;;;;;26.83;51.36;99739.91;5136052;27;20022;-83
2022/08/06 06:41:25;;;;;;;;;;;;;;;26.99;51.26;99727.94;5124246;27;20301;-81
2022/08/06 06:44:01;;;;;;;;;;;;;;;27.08;51.11;99730.63;5150609;27;20067;-82
2022/08/06 06:46:31;;;;;;;;;;;;;;;27.21;50.89;99731.53;5138660;27;19996;-82
2022/08/06 06:49:28;;;;;;;;;;;;;;;27.29;49.98;99738.16;5140393;27;19931;-81
2022/08/06 06:52:20;;;;;;;;;;;;;;;27.41;49.91;99740.97;5150547;27;19933;-82
2022/08/06 06:55:05;;;;;;;;;;;;;;;27.50;49.94;99733.41;5141040;27;19927;-81
2022/08/06 06:57:46;;;;;;;;;;;;;;;27.53;49.87;99720.84;5126703;27;19931;-81
2022/08/06 07:00:13;;;;;;;;;;;;;;;27.63;49.79;99731.50;5100461;27;20425;-80
2022/08/06 07:03:11;;;;;;;;;;;;;;;27.81;49.89;99735.72;5131656;27;19952;-81
2022/08/06 07:05:43;;;;;;;;;;;;;;;27.97;48.69;99735.88;5123390;27;19937;-81
2022/08/06 07:08:30;;;;;;;;;;;;;;;28.03;48.39;99737.31;5118448;27;19931;-80
2022/08/06 07:11:08;;;;;;;;;;;;;;;28.06;48.16;99735.81;5115470;27;19927;-83
2022/08/06 07:13:39;;;;;;;;;;;;;;;28.17;48.18;99728.63;5097309;27;19955;-81
2022/08/06 07:16:19;;;;;;;;;;;;;;;28.19;48.10;99731.09;5100771;27;20374;-80
2022/08/06 07:19:06;;;;;;;;;;;;;;;28.44;47.71;99724.41;5131655;27;19933;-80
2022/08/06 07:21:37;;;;;;;;;;;;;;;28.64;47.15;99725.44;5137686;27;19934;-80
2022/08/06 07:24:14;;;;;;;;;;;;;;;28.79;46.51;99725.88;5121818;27;19927;-79
2022/08/06 07:27:03;;;;;;;;;;;;;;;28.74;46.28;99718.63;5135986;27;19980;-80
2022/08/06 07:29:32;;;;;;;;;;;;;;;28.73;46.16;99717.78;5120253;27;20317;-78
2022/08/06 07:32:19;;;;;;;;;;;;;;;28.60;46.01;99718.16;5131344;27;19927;-80
2022/08/06 07:34:59;;;;;;;;;;;;;;;28.48;46.49;99721.75;5115347;27;20013;-81
2022/08/06 07:37:26;;;;;;;;;;;;;;;28.59;46.50;99722.06;5113187;27;19929;-81
2022/08/06 07:40:06;;;;;;;;;;;;;;;28.79;46.32;99717.56;5134565;27;20378;-80
2022/08/06 07:42:34;;;;;;;;;;;;;;;29.01;46.11;99722.59;5112817;27;20045;-80
2022/08/06 07:45:02;;;;;;;;;;;;;;;29.18;45.28;99716.00;5112622;27;19931;-80
2022/08/06 07:47:38;;;;;;;;;;;;;;;29.32;44.97;99719.19;5096998;27;19997;-80
2022/08/06 07:50:21;;;;;;;;;;;;;;;29.49;44.16;99720.06;5098139;27;20406;-79
2022/08/06 07:52:50;;;;;;;;;;;;;;;29.72;43.13;99706.41;5095979;27;19970;-79
2022/08/06 07:55:17;;;;;;;;;;;;;;;29.76;42.77;99710.91;5112919;27;20412;-80
2022/08/06 07:57:44;;;;;;;;;;;;;;;29.88;42.55;99709.19;5096187;27;19927;-80
2022/08/06 08:00:25;;;;;;;;;;;;;;;29.79;42.34;99710.19;5134382;27;19927;-79
2022/08/06 08:06:19;;;;;;;;;;;;;;;29.99;42.93;99699.97;5143623;27;19980;-80
2022/08/06 08:08:48;;;;;;;;;;;;;;;30.15;42.32;99711.09;5139591;27;19927;-80
2022/08/06 08:11:15;;;;;;;;;;;;;;;30.29;42.21;99707.13;5119478;27;19934;-80
2022/08/06 08:13:46;;;;;;;;;;;;;;;30.44;41.70;99711.88;5119400;27;20468;-80
2022/08/06 08:16:22;;;;;;;;;;;;;;;30.61;41.43;99707.88;5155112;27;20250;-79
2022/08/06 08:18:57;;;;;;;;;;;;;;;30.82;40.75;99707.59;5155234;27;19927;-80
2022/08/06 08:21:42;;;;;;;;;;;;;;;30.98;40.25;99711.13;5118578;27;19927;-80
2022/08/06 08:24:11;;;;;;;;;;;;;;;31.14;39.96;99710.25;5155292;27;19976;-80
2022/08/06 08:26:44;;;;;;;;;;;;;;;31.26;39.55;99701.75;5154581;27;19926;-80
2022/08/06 08:29:31;;;;;;;;;;;;;;;31.68;39.25;99712.19;5154636;27;19995;-80
2022/08/06 08:32:00;;;;;;;;;;;;;;;31.63;38.06;99704.91;5155208;27;19927;-80
2022/08/06 08:34:31;;;;;;;;;;;;;;;31.64;37.46;99714.88;5135634;27;19927;-81
2022/08/06 08:36:59;;;;;;;;;;;;;;;31.73;37.64;99701.53;5154926;27;19972;-80
2022/08/06 08:39:27;;;;;;;;;;;;;;;32.09;37.47;99707.78;5154355;27;19952;-81
2022/08/06 08:42:06;;;;;;;;;;;;;;;32.38;36.08;99703.44;5154503;27;19946;-80
2022/08/06 08:44:33;;;;;;;;;;;;;;;32.48;35.74;99704.81;5136340;27;19927;-80
2022/08/06 08:47:03;;;;;;;;;;;;;;;32.39;36.33;99702.28;5154648;27;19934;-80
2022/08/06 08:49:40;;;;;;;;;;;;;;;32.57;35.25;99704.56;5154666;27;19927;-80
2022/08/06 08:52:27;;;;;;;;;;;;;;;32.70;34.87;99703.16;5137491;27;20475;-81
2022/08/06 08:55:00;;;;;;;;;;;;;;;32.83;34.37;99700.16;5154424;27;19978;-79
2022/08/06 08:57:30;;;;;;;;;;;;;;;33.05;33.84;99690.91;5135983;27;19979;-80
2022/08/06 09:00:17;;;;;;;;;;;;;;;33.32;33.56;99688.81;5154208;27;19934;-80
2022/08/06 09:02:52;;;;;;;;;;;;;;;33.39;33.45;99690.91;5154224;27;19972;-80
2022/08/06 09:05:19;;;;;;;;;;;;;;;33.53;32.93;99688.28;5136009;27;19971;-80
2022/08/06 09:07:46;;;;;;;;;;;;;;;33.54;32.60;99687.06;5135631;27;19927;-80
2022/08/06 09:10:29;;;;;;;;;;;;;;;33.88;32.38;99684.28;5085658;27;19938;-80
2022/08/06 09:12:59;;;;;;;;;;;;;;;34.30;31.72;99680.22;5154034;27;20022;-80
2022/08/06 09:15:26;;;;;;;;;;;;;;;34.33;31.94;99687.84;5154035;27;20389;-80
2022/08/06 09:17:58;;;;;;;;;;;;;;;34.40;31.61;99689.91;5154044;27;20449;-81
2022/08/06 09:20:45;;;;;;;;;;;;;;;34.43;31.33;99689.13;5153921;27;19927;-79
2022/08/06 09:23:16;;;;;;;;;;;;;;;34.61;31.14;99684.47;5154005;27;19927;-79
2022/08/06 09:25:47;;;;;;;;;;;;;;;34.79;31.23;99687.41;5153575;27;20397;-80
2022/08/06 09:28:27;;;;;;;;;;;;;;;35.11;30.48;99689.59;5154092;27;20290;-80
2022/08/06 09:31:07;;;;;;;;;;;;;;;35.24;30.23;99679.59;5153567;27;19950;-81
2022/08/06 09:34:01;;;;;;;;;;;;;;;35.44;30.20;99682.09;5153304;27;19983;-80
2022/08/06 09:36:49;;;;;;;;;;;;;;;35.26;30.04;99680.03;5153093;27;19927;-79
2022/08/06 09:39:40;;;;;;;;;;;;;;;35.61;29.59;99677.75;5153492;27;20369;-80
2022/08/06 09:42:35;;;;;;;;;;;;;;;36.02;29.33;99678.97;5134458;27;19927;-80
2022/08/06 09:45:10;;;;;;;;;;;;;;;36.16;28.69;99681.03;5152914;27;19987;-80
2022/08/06 09:47:47;;;;;;;;;;;;;;;36.30;28.80;99673.78;5119704;27;20326;-79
2022/08/06 09:50:38;;;;;;;;;;;;;;;35.90;28.83;99672.97;5134525;27;19976;-79
2022/08/06 09:53:08;;;;;;;;;;;;;;;36.36;28.37;99667.38;5153536;27;19927;-80
2022/08/06 09:55:41;;;;;;;;;;;;;;;36.88;28.26;99666.88;5152944;27;19934;-80
2022/08/06 09:58:08;;;;;;;;;;;;;;;36.96;27.72;99668.44;5153407;27;19934;-80
2022/08/06 10:00:36;;;;;;;;;;;;;;;37.02;27.72;99652.75;5134736;27;19949;-80
2022/08/06 10:03:04;;;;;;;;;;;;;;;37.05;27.51;99657.59;5153186;27;20373;-81
2022/08/06 10:06:25;;;;;;;;;;;;;;;37.08;27.52;99656.78;5138001;27;19931;-81
2022/08/06 10:09:07;;;;;;;;;;;;;;;37.21;27.42;99659.13;5068150;28;19936;-79
2022/08/06 10:11:47;;;;;;;;;;;;;;;37.15;27.78;99657.94;5051271;28;19928;-80
2022/08/06 10:14:32;;;;;;;;;;;;;;;37.63;27.23;99651.66;5068288;28;19954;-80
2022/08/06 10:17:13;;;;;;;;;;;;;;;37.87;26.79;99650.66;5051915;28;19928;-81
2022/08/06 10:19:45;;;;;;;;;;;;;;;37.89;26.43;99656.69;5068633;28;20306;-80
2022/08/06 10:22:18;;;;;;;;;;;;;;;38.45;26.09;99651.00;5069045;28;20368;-80
2022/08/06 10:24:50;;;;;;;;;;;;;;;37.20;27.19;99657.53;5068406;28;19939;-81
2022/08/06 10:27:21;;;;;;;;;;;;;;;36.26;28.12;99640.09;5068761;28;19944;-80
2022/08/06 10:29:50;;;;;;;;;;;;;;;36.61;27.53;99650.47;5052258;28;20399;-80
2022/08/06 10:32:37;;;;;;;;;;;;;;;37.15;26.86;99638.25;5068812;28;19935;-81
2022/08/06 10:35:05;;;;;;;;;;;;;;;35.99;28.52;99639.69;5052238;28;19929;-80
2022/08/06 10:37:41;;;;;;;;;;;;;;;35.87;29.02;99640.88;5068558;28;20118;-80
2022/08/06 10:40:15;;;;;;;;;;;;;;;37.21;27.27;99625.34;5068669;28;20306;-79
2022/08/06 10:42:58;;;;;;;;;;;;;;;38.08;26.35;99632.00;5054143;28;19972;-80
2022/08/06 10:45:26;;;;;;;;;;;;;;;38.66;25.67;99618.94;5124750;27;19960;-80
2022/08/06 10:48:12;;;;;;;;;;;;;;;39.03;25.47;99620.16;5153044;27;19966;-80
2022/08/06 10:50:59;;;;;;;;;;;;;;;39.48;24.60;99611.47;5152801;27;20030;-80
2022/08/06 10:53:27;;;;;;;;;;;;;;;39.39;24.36;99606.34;5152544;27;20018;-81
2022/08/06 10:56:20;;;;;;;;;;;;;;;39.59;24.20;99612.09;5068078;28;19929;-80
2022/08/06 10:59:02;;;;;;;;;;;;;;;39.37;24.22;99602.34;5068464;28;19929;-80
2022/08/06 11:01:35;;;;;;;;;;;;;;;39.75;24.08;99611.41;5068135;28;19929;-81
2022/08/06 11:04:16;;;;;;;;;;;;;;;39.21;23.36;99606.56;5051731;28;19928;-80
2022/08/06 11:07:06;;;;;;;;;;;;;;;38.75;24.50;99605.16;5035063;28;19928;-79
2022/08/06 11:09:43;;;;;;;;;;;;;;;39.24;24.25;99600.06;5068259;28;20063;-79
2022/08/06 11:12:48;;;;;;;;;;;;;;;39.76;23.47;99600.94;5054027;28;20436;-80
2022/08/06 11:15:17;;;;;;;;;;;;;;;39.70;23.68;99605.47;5068096;28;20018;-80
2022/08/06 11:17:52;;;;;;;;;;;;;;;40.12;23.11;99597.53;5052189;28;19928;-80
2022/08/06 11:20:36;;;;;;;;;;;;;;;39.85;23.05;99596.34;5053984;28;19928;-79
2022/08/06 11:23:05;;;;;;;;;;;;;;;38.34;24.40;99593.94;5071970;28;19932;-79
2022/08/06 11:26:10;;;;;;;;;;;;;;;37.68;25.29;99589.28;5056026;28;20102;-80
2022/08/06 11:28:36;;;;;;;;;;;;;;;37.79;25.28;99592.81;5013528;28;19929;-80
2022/08/06 11:31:04;;;;;;;;;;;;;;;38.77;24.80;99585.00;5091905;28;20021;-80
2022/08/06 11:33:41;;;;;;;;;;;;;;;39.97;23.37;99575.16;5091890;28;19928;-80
2022/08/06 11:36:10;;;;;;;;;;;;;;;40.25;22.45;99585.16;5091780;28;19927;-80
2022/08/06 11:38:40;;;;;;;;;;;;;;;39.59;23.07;99574.59;5091695;28;19928;-80
2022/08/06 11:41:21;;;;;;;;;;;;;;;39.78;22.97;99568.25;5091788;28;19964;-80
2022/08/06 11:44:09;;;;;;;;;;;;;;;39.94;22.42;99573.22;5091681;28;20357;-80
2022/08/06 11:46:45;;;;;;;;;;;;;;;40.38;22.37;99568.34;5075672;28;20432;-80
2022/08/06 11:49:16;;;;;;;;;;;;;;;40.95;21.78;99569.22;5091571;28;19928;-80
2022/08/06 11:51:46;;;;;;;;;;;;;;;41.27;21.92;99554.34;5091368;28;20014;-79
2022/08/06 11:54:28;;;;;;;;;;;;;;;41.83;20.92;99559.06;5091132;28;19928;-80
2022/08/06 11:57:01;;;;;;;;;;;;;;;42.09;20.77;99556.41;5091367;28;20526;-80
2022/08/06 11:59:29;;;;;;;;;;;;;;;41.11;20.59;99557.97;5091032;28;19927;-80
2022/08/06 12:01:56;;;;;;;;;;;;;;;41.35;20.78;99552.13;5091245;28;20011;-79
2022/08/06 12:04:36;;;;;;;;;;;;;;;40.80;20.89;99560.25;5127243;27;20417;-80
2022/08/06 12:07:21;;;;;;;;;;;;;;;41.11;20.79;99540.97;5155307;27;20508;-80
2022/08/06 12:10:01;;;;;;;;;;;;;;;40.82;20.97;99542.81;5156760;27;19927;-80
2022/08/06 12:12:33;;;;;;;;;;;;;;;40.77;20.67;99541.34;5155674;27;19930;-79
2022/08/06 12:15:23;;;;;;;;;;;;;;;40.65;20.74;99544.78;5156256;27;20308;-80
2022/08/06 12:18:10;;;;;;;;;;;;;;;39.46;21.15;99551.00;5155505;27;19934;-78
2022/08/06 12:20:53;;;;;;;;;;;;;;;40.00;21.52;99540.38;5155216;27;19935;-80
2022/08/06 12:23:22;;;;;;;;;;;;;;;40.05;21.15;99537.06;5119344;27;20249;-80
2022/08/06 12:26:09;;;;;;;;;;;;;;;40.23;21.39;99544.44;5154138;27;19927;-80
2022/08/06 12:28:36;;;;;;;;;;;;;;;41.07;20.83;99533.78;5136677;27;19958;-80
2022/08/06 12:31:04;;;;;;;;;;;;;;;40.77;20.95;99532.84;5153986;27;19931;-79
2022/08/06 12:33:50;;;;;;;;;;;;;;;40.96;20.78;99521.91;5154857;27;19927;-80
2022/08/06 12:36:17;;;;;;;;;;;;;;;40.64;20.80;99524.22;5155031;27;19931;-81
2022/08/06 12:39:01;;;;;;;;;;;;;;;40.99;20.74;99515.38;5155115;27;19979;-80
2022/08/06 12:41:33;;;;;;;;;;;;;;;41.46;19.94;99500.91;5154640;27;19963;-80
2022/08/06 12:44:13;;;;;;;;;;;;;;;41.57;20.48;99512.78;5147986;27;19934;-79
2022/08/06 12:46:43;;;;;;;;;;;;;;;42.43;19.70;99510.47;5149704;27;20004;-80
2022/08/06 12:49:10;;;;;;;;;;;;;;;43.00;18.89;99505.94;5134083;27;19927;-80
2022/08/06 12:51:37;;;;;;;;;;;;;;;42.11;19.67;99514.19;5115442;27;19955;-83
2022/08/06 12:54:07;;;;;;;;;;;;;;;41.74;19.58;99513.56;5145611;27;19933;-80
2022/08/06 12:56:36;;;;;;;;;;;;;;;40.70;20.11;99516.81;5133816;27;20449;-81
2022/08/06 12:59:06;;;;;;;;;;;;;;;40.46;20.76;99512.47;5142507;27;19927;-81
2022/08/06 13:01:50;;;;;;;;;;;;;;;41.48;20.25;99495.63;5154381;27;19970;-81
2022/08/06 13:04:37;;;;;;;;;;;;;;;41.11;20.38;99506.22;5139014;27;19927;-80
2022/08/06 13:07:05;;;;;;;;;;;;;;;41.05;20.45;99505.13;5151243;27;20348;-80
2022/08/06 13:09:38;;;;;;;;;;;;;;;38.98;22.28;99499.31;5125091;27;19962;-80
2022/08/06 13:12:26;;;;;;;;;;;;;;;39.30;21.94;99493.16;5118446;27;20381;-82
2022/08/06 13:15:13;;;;;;;;;;;;;;;40.41;20.87;99487.53;5118466;27;19927;-79
2022/08/06 13:18:03;;;;;;;;;;;;;;;41.60;19.92;99488.44;5133190;27;20392;-80
2022/08/06 13:20:53;;;;;;;;;;;;;;;42.07;19.61;99491.63;5142497;27;19927;-80
2022/08/06 13:23:33;;;;;;;;;;;;;;;42.19;19.02;99493.72;5153739;27;19927;-79
2022/08/06 13:26:29;;;;;;;;;;;;;;;42.17;19.27;99482.03;5154115;27;19973;-79
2022/08/06 13:29:10;;;;;;;;;;;;;;;43.59;18.38;99482.94;5149631;27;19935;-82
2022/08/06 13:32:08;;;;;;;;;;;;;;;44.07;17.27;99483.69;5137532;27;19934;-79
2022/08/06 13:34:56;;;;;;;;;;;;;;;41.95;19.00;99476.16;5132882;27;20350;-78
2022/08/06 13:37:43;;;;;;;;;;;;;;;41.89;19.10;99471.47;5132833;27;19927;-79
2022/08/06 13:40:37;;;;;;;;;;;;;;;42.57;18.69;99476.03;5132996;27;20038;-79